createdAt,value
2023-05-14T00:00:02.020Z,11.17
2023-05-14T00:03:15.678Z,11.13
2023-05-14T00:06:13.994Z,11.10
2023-05-14T00:09:15.206Z,11.08
2023-05-14T00:12:30.889Z,11.04
2023-05-14T00:15:10.885Z,11.01
2023-05-14T00:18:14.895Z,10.98
2023-05-14T00:21:27.218Z,10.94
2023-05-14T00:24:39.734Z,10.90
2023-05-14T00:28:09.361Z,10.86
2023-05-14T00:31:45.182Z,10.81
2023-05-14T00:35:25.053Z,10.75
2023-05-14T00:39:01.227Z,10.67
2023-05-14T00:42:29.081Z,10.59
2023-05-14T00:45:17.560Z,10.55
2023-05-14T00:47:50.269Z,10.52
2023-05-14T00:51:13.685Z,10.49
2023-05-14T00:55:02.381Z,10.44
2023-05-14T00:59:12.124Z,10.36
2023-05-14T01:02:32.903Z,10.32
2023-05-14T01:06:46.868Z,10.28
2023-05-14T01:10:42.621Z,10.09
2023-05-14T01:14:33.883Z,10.16
2023-05-14T01:17:44.905Z,10.11
2023-05-14T01:21:17.573Z,10.10
2023-05-14T01:24:58.654Z,10.08
2023-05-14T01:28:13.657Z,10.08
2023-05-14T01:31:39.802Z,10.15
2023-05-14T01:34:53.711Z,10.12
2023-05-14T01:38:21.475Z,10.02
2023-05-14T01:41:44.173Z,9.98
2023-05-14T01:45:08.951Z,9.99
2023-05-14T01:48:34.261Z,10.01
2023-05-14T01:52:32.752Z,10.04
2023-05-14T01:55:45.740Z,10.06
2023-05-14T01:58:27.268Z,10.08
2023-05-14T02:01:26.549Z,10.10
2023-05-14T02:05:25.561Z,10.13
2023-05-14T02:09:25.206Z,10.13
2023-05-14T02:13:24.900Z,10.13
2023-05-14T02:17:14.895Z,9.94
2023-05-14T02:21:15.682Z,10.07
2023-05-14T02:25:25.402Z,9.95
2023-05-14T02:29:35.013Z,9.96
2023-05-14T02:33:45.022Z,9.88
2023-05-14T02:37:54.696Z,9.82
2023-05-14T02:41:44.253Z,9.76
2023-05-14T02:45:54.004Z,9.74
2023-05-14T02:49:56.606Z,9.69
2023-05-14T02:54:06.410Z,9.65
2023-05-14T02:58:16.186Z,9.57
2023-05-14T03:02:19.065Z,9.50
2023-05-14T03:06:29.377Z,9.43
2023-05-14T03:10:28.943Z,9.40
2023-05-14T03:14:28.868Z,9.37
2023-05-14T03:18:28.534Z,9.32
2023-05-14T03:22:28.552Z,9.30
2023-05-14T03:26:38.221Z,9.29
2023-05-14T03:30:48.419Z,9.20
2023-05-14T03:34:58.124Z,9.30
2023-05-14T03:38:40.371Z,9.31
2023-05-14T03:42:40.569Z,9.39
2023-05-14T03:46:50.398Z,9.49
2023-05-14T03:50:20.829Z,9.59
2023-05-14T03:53:26.600Z,9.64
2023-05-14T03:56:25.500Z,9.71
2023-05-14T03:59:36.077Z,9.72
2023-05-14T04:03:19.299Z,9.74
2023-05-14T04:07:29.293Z,9.83
2023-05-14T04:11:29.063Z,10.02
2023-05-14T04:15:39.199Z,10.27
2023-05-14T04:19:24.743Z,10.52
2023-05-14T04:23:24.677Z,10.77
2023-05-14T04:27:34.328Z,11.03
2023-05-14T04:31:17.182Z,11.23
2023-05-14T04:35:26.977Z,11.41
2023-05-14T04:39:09.607Z,11.58
2023-05-14T04:42:59.748Z,11.81
2023-05-14T04:46:49.406Z,12.02
2023-05-14T04:50:59.074Z,12.31
2023-05-14T04:55:01.849Z,12.50
2023-05-14T04:59:11.420Z,12.65
2023-05-14T05:03:13.992Z,12.78
2023-05-14T05:07:04.121Z,12.88
2023-05-14T05:11:04.998Z,12.95
2023-05-14T05:14:44.682Z,13.03
2023-05-14T05:18:36.904Z,12.99
2023-05-14T05:22:11.473Z,13.22
2023-05-14T05:26:11.587Z,13.31
2023-05-14T05:30:01.385Z,13.42
2023-05-14T05:33:51.382Z,13.53
2023-05-14T05:37:43.943Z,13.66
2023-05-14T05:41:13.760Z,13.81
2023-05-14T05:44:56.534Z,13.97
2023-05-14T05:48:34.783Z,14.13
2023-05-14T05:52:29.179Z,14.25
2023-05-14T05:55:51.661Z,14.43
2023-05-14T05:59:41.405Z,14.55
2023-05-14T06:03:31.317Z,14.65
2023-05-14T06:06:40.678Z,14.74
2023-05-14T06:09:33.455Z,14.83
2023-05-14T06:12:46.508Z,14.95
2023-05-14T06:15:27.462Z,15.02
2023-05-14T06:18:32.650Z,15.09
2023-05-14T06:21:33.278Z,15.20
2023-05-14T06:25:02.070Z,15.27
2023-05-14T06:28:15.408Z,15.32
2023-05-14T06:30:55.383Z,15.37
2023-05-14T06:33:58.551Z,15.35
2023-05-14T06:37:21.709Z,15.41
2023-05-14T06:41:21.586Z,15.55
2023-05-14T06:44:51.675Z,15.64
2023-05-14T06:48:33.677Z,15.72
2023-05-14T06:51:18.113Z,15.78
2023-05-14T06:54:22.127Z,15.88
2023-05-14T06:57:07.123Z,15.98
2023-05-14T07:00:11.182Z,16.17
2023-05-14T07:02:50.916Z,16.45
2023-05-14T07:05:42.973Z,16.77
2023-05-14T07:08:55.786Z,17.09
2023-05-14T07:11:33.228Z,17.46
2023-05-14T07:14:17.787Z,17.76
2023-05-14T07:16:50.884Z,18.03
2023-05-14T07:19:22.554Z,18.27
2023-05-14T07:21:55.517Z,18.51
2023-05-14T07:24:46.387Z,18.75
2023-05-14T07:27:28.806Z,18.94
2023-05-14T07:29:58.929Z,19.11
2023-05-14T07:32:32.824Z,19.23
2023-05-14T07:35:22.005Z,19.30
2023-05-14T07:38:23.769Z,19.51
2023-05-14T07:41:02.031Z,19.69
2023-05-14T07:43:34.881Z,19.86
2023-05-14T07:46:12.883Z,19.98
2023-05-14T07:48:52.703Z,20.12
2023-05-14T07:51:23.535Z,20.25
2023-05-14T07:53:52.951Z,20.35
2023-05-14T07:56:25.325Z,20.45
2023-05-14T07:58:59.017Z,20.55
2023-05-14T08:01:44.138Z,20.65
2023-05-14T08:04:26.220Z,20.73
2023-05-14T08:06:59.033Z,20.76
2023-05-14T08:09:31.291Z,20.66
2023-05-14T08:12:03.811Z,20.89
2023-05-14T08:14:34.956Z,20.96
2023-05-14T08:17:07.960Z,21.04
2023-05-14T08:19:40.396Z,21.15
2023-05-14T08:22:13.037Z,21.22
2023-05-14T08:24:43.705Z,21.25
2023-05-14T08:27:23.111Z,21.33
2023-05-14T08:29:53.968Z,21.43
2023-05-14T08:32:24.992Z,21.44
2023-05-14T08:34:54.578Z,21.50
2023-05-14T08:37:24.383Z,21.54
2023-05-14T08:39:56.053Z,21.57
2023-05-14T08:42:29.629Z,21.56
2023-05-14T08:45:03.759Z,21.70
2023-05-14T08:47:36.596Z,21.87
2023-05-14T08:50:09.110Z,22.03
2023-05-14T08:52:40.385Z,22.01
2023-05-14T08:55:14.215Z,22.15
2023-05-14T08:57:47.974Z,22.18
2023-05-14T09:00:20.756Z,22.29
2023-05-14T09:02:54.334Z,22.39
2023-05-14T09:05:26.026Z,22.46
2023-05-14T09:07:59.140Z,22.49
2023-05-14T09:10:40.803Z,22.55
2023-05-14T09:13:10.747Z,22.66
2023-05-14T09:15:41.647Z,22.73
2023-05-14T09:18:10.754Z,22.75
2023-05-14T09:20:42.127Z,22.77
2023-05-14T09:23:12.818Z,22.81
2023-05-14T09:25:45.996Z,22.87
2023-05-14T09:28:19.534Z,22.92
2023-05-14T09:30:52.596Z,22.95
2023-05-14T09:33:29.091Z,23.01
2023-05-14T09:36:02.252Z,23.07
2023-05-14T09:38:32.857Z,23.08
2023-05-14T09:41:02.083Z,23.14
2023-05-14T09:43:32.300Z,23.22
2023-05-14T09:46:01.945Z,23.26
2023-05-14T09:48:31.175Z,23.31
2023-05-14T09:51:00.137Z,23.32
2023-05-14T09:53:31.157Z,23.37
2023-05-14T09:56:02.711Z,23.42
2023-05-14T09:58:31.787Z,23.49
2023-05-14T10:01:02.263Z,23.53
2023-05-14T10:03:32.494Z,23.54
2023-05-14T10:06:07.245Z,23.62
2023-05-14T10:08:41.481Z,23.71
2023-05-14T10:11:25.828Z,23.80
2023-05-14T10:14:22.510Z,23.87
2023-05-14T10:16:53.457Z,23.94
2023-05-14T10:19:26.051Z,23.99
2023-05-14T10:22:06.063Z,24.03
2023-05-14T10:24:39.362Z,24.07
2023-05-14T10:27:10.009Z,24.07
2023-05-14T10:29:39.478Z,24.09
2023-05-14T10:32:10.917Z,24.13
2023-05-14T10:34:46.601Z,24.21
2023-05-14T10:37:18.514Z,24.30
2023-05-14T10:40:06.397Z,24.36
2023-05-14T10:42:44.455Z,24.42
2023-05-14T10:45:23.837Z,24.49
2023-05-14T10:47:52.806Z,24.56
2023-05-14T10:50:25.551Z,24.61
2023-05-14T10:52:57.964Z,24.65
2023-05-14T10:55:27.583Z,24.66
2023-05-14T10:58:01.858Z,24.66
2023-05-14T11:00:35.245Z,24.64
2023-05-14T11:03:08.433Z,24.62
2023-05-14T11:05:41.585Z,24.67
2023-05-14T11:08:13.102Z,24.65
2023-05-14T11:10:43.665Z,24.63
2023-05-14T11:13:14.890Z,24.65
2023-05-14T11:15:48.725Z,24.71
2023-05-14T11:18:32.260Z,24.73
2023-05-14T11:21:15.355Z,24.74
2023-05-14T11:23:47.849Z,24.70
2023-05-14T11:26:17.872Z,24.71
2023-05-14T11:28:47.884Z,24.73
2023-05-14T11:31:17.213Z,24.67
2023-05-14T11:33:46.490Z,24.63
2023-05-14T11:36:16.708Z,24.73
2023-05-14T11:38:49.500Z,24.71
2023-05-14T11:41:21.767Z,24.65
2023-05-14T11:43:51.145Z,24.54
2023-05-14T11:46:20.249Z,24.59
2023-05-14T11:48:49.353Z,24.59
2023-05-14T11:51:18.376Z,24.61
2023-05-14T11:53:47.658Z,24.66
2023-05-14T11:56:16.638Z,24.67
2023-05-14T11:58:49.394Z,24.76
2023-05-14T12:01:21.192Z,24.76
2023-05-14T12:03:51.268Z,24.76
2023-05-14T12:06:20.280Z,24.83
2023-05-14T12:08:49.902Z,24.81
2023-05-14T12:11:21.756Z,24.75
2023-05-14T12:13:50.745Z,24.72
2023-05-14T12:16:21.207Z,24.66
2023-05-14T12:18:50.082Z,24.49
2023-05-14T12:21:19.300Z,24.44
2023-05-14T12:23:48.660Z,24.38
2023-05-14T12:26:17.543Z,24.48
2023-05-14T12:28:48.611Z,24.52
2023-05-14T12:31:17.631Z,24.60
2023-05-14T12:33:47.920Z,24.71
2023-05-14T12:36:21.805Z,24.81
2023-05-14T12:38:57.492Z,24.87
2023-05-14T12:41:26.491Z,24.90
2023-05-14T12:43:56.791Z,24.92
2023-05-14T12:46:28.282Z,24.80
2023-05-14T12:48:57.956Z,24.61
2023-05-14T12:51:27.059Z,24.46
2023-05-14T12:53:56.040Z,24.26
2023-05-14T12:56:28.718Z,24.15
2023-05-14T12:58:57.610Z,24.12
2023-05-14T13:01:27.068Z,24.17
2023-05-14T13:03:59.928Z,24.28
2023-05-14T13:06:29.007Z,24.44
2023-05-14T13:09:00.811Z,24.59
2023-05-14T13:11:31.994Z,24.68
2023-05-14T13:14:02.161Z,24.75
2023-05-14T13:16:31.575Z,24.77
2023-05-14T13:19:00.482Z,24.82
2023-05-14T13:21:32.635Z,24.86
2023-05-14T13:24:01.770Z,24.92
2023-05-14T13:26:30.585Z,24.98
2023-05-14T13:28:59.462Z,25.05
2023-05-14T13:31:29.313Z,25.13
2023-05-14T13:33:59.700Z,25.17
2023-05-14T13:36:28.650Z,25.18
2023-05-14T13:38:57.639Z,25.21
2023-05-14T13:41:26.770Z,25.23
2023-05-14T13:43:56.001Z,25.18
2023-05-14T13:46:25.139Z,25.20
2023-05-14T13:48:53.961Z,25.19
2023-05-14T13:51:24.108Z,25.16
2023-05-14T13:56:26.825Z,24.94
2023-05-14T13:58:56.395Z,24.89
2023-05-14T14:01:26.257Z,24.80
2023-05-14T14:03:55.413Z,24.75
2023-05-14T14:06:24.093Z,24.73
2023-05-14T14:08:53.600Z,24.66
2023-05-14T14:11:22.589Z,24.62
2023-05-14T14:13:51.255Z,24.53
2023-05-14T14:16:20.184Z,24.59
2023-05-14T14:18:49.837Z,24.49
2023-05-14T14:21:21.104Z,24.36
2023-05-14T14:23:50.228Z,24.25
2023-05-14T14:26:19.402Z,24.18
2023-05-14T14:28:48.312Z,24.11
2023-05-14T14:31:17.966Z,24.08
2023-05-14T14:33:46.899Z,24.06
2023-05-14T14:36:16.292Z,24.00
2023-05-14T14:38:45.101Z,23.87
2023-05-14T14:41:13.808Z,23.78
2023-05-14T14:43:44.142Z,23.77
2023-05-14T14:46:14.359Z,23.80
2023-05-14T14:48:44.455Z,23.82
2023-05-14T14:51:13.445Z,23.81
2023-05-14T14:53:42.332Z,23.78
2023-05-14T14:56:11.739Z,23.69
2023-05-14T14:58:41.135Z,23.63
2023-05-14T15:01:10.065Z,23.61
2023-05-14T15:03:39.502Z,23.54
2023-05-14T15:06:09.785Z,23.53
2023-05-14T15:08:38.852Z,23.50
2023-05-14T15:11:08.975Z,23.41
2023-05-14T15:13:42.257Z,23.31
2023-05-14T15:16:15.237Z,23.24
2023-05-14T15:18:46.952Z,23.19
2023-05-14T15:21:16.442Z,23.15
2023-05-14T15:23:46.029Z,22.99
2023-05-14T15:26:16.580Z,23.05
2023-05-14T15:28:46.701Z,23.05
2023-05-14T15:31:16.731Z,23.00
2023-05-14T15:33:45.979Z,22.89
2023-05-14T15:36:15.208Z,22.91
2023-05-14T15:38:44.890Z,22.85
2023-05-14T15:41:20.750Z,22.83
2023-05-14T15:43:52.235Z,22.73
2023-05-14T15:46:23.693Z,22.66
2023-05-14T15:48:55.534Z,22.58
2023-05-14T15:51:28.288Z,22.52
2023-05-14T15:53:58.847Z,22.44
2023-05-14T15:56:28.134Z,22.42
2023-05-14T15:58:59.286Z,22.36
2023-05-14T16:01:31.162Z,22.35
2023-05-14T16:04:01.798Z,22.32
2023-05-14T16:06:34.250Z,22.27
2023-05-14T16:09:05.628Z,22.20
2023-05-14T16:11:36.121Z,22.14
2023-05-14T16:14:08.373Z,22.10
2023-05-14T16:16:37.728Z,22.04
2023-05-14T16:19:07.545Z,21.76
2023-05-14T16:21:39.214Z,21.85
2023-05-14T16:24:09.487Z,21.78
2023-05-14T16:26:39.588Z,21.72
2023-05-14T16:29:11.873Z,21.53
2023-05-14T16:31:41.213Z,21.57
2023-05-14T16:34:10.572Z,21.51
2023-05-14T16:36:45.850Z,21.46
2023-05-14T16:39:17.984Z,21.40
2023-05-14T16:41:47.061Z,21.35
2023-05-14T16:44:28.257Z,21.28
2023-05-14T16:46:57.964Z,21.22
2023-05-14T16:49:34.649Z,21.15
2023-05-14T16:52:03.735Z,21.09
2023-05-14T16:54:42.760Z,20.98
2023-05-14T16:57:12.661Z,20.97
2023-05-14T16:59:48.093Z,20.93
2023-05-14T17:02:31.541Z,20.92
2023-05-14T17:05:22.083Z,20.88
2023-05-14T17:07:51.921Z,20.82
2023-05-14T17:10:30.895Z,20.77
2023-05-14T17:13:01.368Z,20.74
2023-05-14T17:15:57.679Z,20.69
2023-05-14T17:18:28.341Z,20.65
2023-05-14T17:20:58.688Z,20.61
2023-05-14T17:23:39.899Z,20.53
2023-05-14T17:26:09.882Z,20.55
2023-05-14T17:28:52.875Z,20.45
2023-05-14T17:31:31.848Z,20.30
2023-05-14T17:34:13.369Z,20.26
2023-05-14T17:37:04.746Z,20.22
2023-05-14T17:41:14.037Z,20.08
2023-05-14T17:44:47.028Z,20.09
2023-05-14T17:52:34.391Z,20.00
2023-05-14T17:57:16.673Z,19.90
2023-05-14T18:01:41.369Z,19.87
2023-05-14T18:06:43.205Z,19.79
2023-05-14T18:11:05.837Z,19.65
2023-05-14T18:15:44.047Z,19.54
2023-05-14T18:19:01.169Z,19.41
2023-05-14T18:21:31.326Z,19.38
2023-05-14T18:24:04.898Z,19.32
2023-05-14T18:26:35.090Z,19.24
2023-05-14T18:29:10.253Z,19.14
2023-05-14T18:31:41.189Z,19.01
2023-05-14T18:34:25.555Z,18.84
2023-05-14T18:36:59.777Z,18.66
2023-05-14T18:39:33.474Z,18.40
2023-05-14T18:42:11.178Z,18.39
2023-05-14T18:44:45.598Z,18.25
2023-05-14T18:47:19.810Z,18.12
2023-05-14T18:49:57.615Z,18.01
2023-05-14T18:52:42.806Z,17.92
2023-05-14T18:55:20.213Z,17.87
2023-05-14T18:58:18.295Z,17.84
2023-05-14T19:01:01.286Z,17.82
2023-05-14T19:03:54.700Z,17.76
2023-05-14T19:06:25.558Z,17.69
2023-05-14T19:09:24.489Z,17.62
2023-05-14T19:11:59.176Z,17.52
2023-05-14T19:14:35.160Z,17.44
2023-05-14T19:17:34.079Z,17.36
2023-05-14T19:20:29.656Z,17.29
2023-05-14T19:23:04.983Z,17.28
2023-05-14T19:26:26.347Z,17.30
2023-05-14T19:29:26.234Z,17.29
2023-05-14T19:32:00.923Z,17.23
2023-05-14T19:34:42.544Z,17.15
2023-05-14T19:37:59.395Z,17.08
2023-05-14T19:41:23.545Z,16.97
2023-05-14T19:44:48.183Z,16.91
2023-05-14T19:47:24.851Z,16.85
2023-05-14T19:51:08.532Z,16.77
2023-05-14T19:54:16.255Z,16.68
2023-05-14T19:57:16.303Z,16.66
2023-05-14T20:00:55.812Z,16.68
2023-05-14T20:03:32.668Z,16.71
2023-05-14T20:06:14.788Z,16.75
2023-05-14T20:08:46.150Z,16.79
2023-05-14T20:11:18.522Z,16.81
2023-05-14T20:13:49.164Z,16.81
2023-05-14T20:16:21.247Z,16.80
2023-05-14T20:19:18.650Z,16.78
2023-05-14T20:21:55.182Z,16.74
2023-05-14T20:24:43.398Z,16.69
2023-05-14T20:27:19.343Z,16.65
2023-05-14T20:29:51.572Z,16.58
2023-05-14T20:32:25.376Z,16.51
2023-05-14T20:35:10.007Z,16.45
2023-05-14T20:38:15.519Z,16.43
2023-05-14T20:42:13.521Z,16.33
2023-05-14T20:45:21.857Z,16.52
2023-05-14T20:48:23.105Z,16.53
2023-05-14T20:51:26.395Z,16.45
2023-05-14T20:55:07.388Z,16.42
2023-05-14T21:02:38.951Z,16.38
2023-05-14T21:06:59.229Z,16.38
2023-05-14T21:10:38.712Z,16.39
2023-05-14T21:13:57.344Z,16.42
2023-05-14T21:17:56.738Z,16.44
2023-05-14T21:22:11.766Z,16.45
2023-05-14T21:26:03.596Z,16.44
2023-05-14T21:30:42.723Z,16.40
2023-05-14T21:34:02.761Z,16.22
2023-05-14T21:38:09.627Z,16.17
2023-05-14T21:41:14.318Z,16.08
2023-05-14T21:43:45.518Z,16.09
2023-05-14T21:46:16.455Z,15.99
2023-05-14T21:48:50.609Z,15.88
2023-05-14T21:51:21.811Z,15.78
2023-05-14T21:53:52.698Z,15.69
2023-05-14T21:56:24.297Z,15.62
2023-05-14T21:58:55.789Z,15.57
2023-05-14T22:01:35.638Z,15.55
2023-05-14T22:06:42.305Z,15.54
2023-05-14T22:09:14.153Z,15.55
2023-05-14T22:11:48.178Z,15.58
2023-05-14T22:14:16.955Z,15.61
2023-05-14T22:16:48.562Z,15.63
2023-05-14T22:19:17.442Z,15.66
2023-05-14T22:21:51.104Z,15.67
2023-05-14T22:24:22.976Z,15.66
2023-05-14T22:26:58.708Z,15.65
2023-05-14T22:29:27.338Z,15.66
2023-05-14T22:31:58.699Z,15.68
2023-05-14T22:34:27.548Z,15.67
2023-05-14T22:37:03.085Z,15.67
2023-05-14T22:39:37.513Z,15.62
2023-05-14T22:42:06.502Z,15.57
2023-05-14T22:44:41.220Z,15.52
2023-05-14T22:47:21.084Z,15.49
2023-05-14T22:49:52.943Z,15.45
2023-05-14T22:52:25.814Z,15.41
2023-05-14T22:54:59.922Z,15.37
2023-05-14T22:57:36.710Z,15.35
2023-05-14T23:00:19.330Z,15.31
2023-05-14T23:02:50.990Z,15.25
2023-05-14T23:05:25.907Z,15.22
2023-05-14T23:08:01.365Z,15.24
2023-05-14T23:10:30.125Z,15.26
2023-05-14T23:13:01.811Z,15.24
2023-05-14T23:15:42.638Z,15.20
2023-05-14T23:18:12.114Z,15.21
2023-05-14T23:20:44.030Z,15.22
2023-05-14T23:23:20.088Z,15.25
2023-05-14T23:25:50.319Z,15.26
2023-05-14T23:28:21.664Z,15.24
2023-05-14T23:30:52.912Z,15.24
2023-05-14T23:33:31.119Z,15.24
2023-05-14T23:36:02.561Z,15.26
2023-05-14T23:38:34.132Z,15.27
2023-05-14T23:41:08.560Z,15.30
2023-05-14T23:43:43.768Z,15.31
2023-05-14T23:46:14.952Z,15.33
2023-05-14T23:48:49.041Z,15.31
2023-05-14T23:51:30.940Z,15.22
2023-05-14T23:54:22.053Z,15.25
2023-05-14T23:56:55.228Z,15.18
2023-05-14T23:59:40.276Z,15.11
